createdAt,value
2023-02-02T04:46:46.177Z,4.70
2023-02-02T04:49:12.914Z,4.70
2023-02-02T04:51:40.687Z,4.70
2023-02-02T04:54:07.749Z,4.60
2023-02-02T04:56:35.090Z,4.60
2023-02-02T04:59:01.837Z,4.60
2023-02-02T05:01:30.707Z,4.60
2023-02-02T05:03:57.652Z,4.50
2023-02-02T05:06:24.678Z,4.60
2023-02-02T05:08:51.801Z,4.70
2023-02-02T05:11:22.069Z,4.60
2023-02-02T05:13:50.587Z,4.70
2023-02-02T05:16:17.550Z,4.70
2023-02-02T05:18:49.779Z,4.70
2023-02-02T05:21:16.489Z,4.60
2023-02-02T05:23:43.140Z,4.60
2023-02-02T05:26:15.984Z,4.70
2023-02-02T05:28:42.909Z,4.70
2023-02-02T05:31:10.295Z,4.70
2023-02-02T05:33:37.381Z,4.60
2023-02-02T05:36:04.693Z,4.70
2023-02-02T05:38:31.714Z,4.60
2023-02-02T05:40:58.557Z,4.70
2023-02-02T05:43:27.293Z,4.70
2023-02-02T05:45:54.040Z,4.70
2023-02-02T05:48:20.719Z,4.70
2023-02-02T05:51:00.967Z,4.70
2023-02-02T05:53:29.914Z,4.70
2023-02-02T05:55:56.695Z,4.80
2023-02-02T05:58:23.450Z,4.80
2023-02-02T06:00:50.167Z,4.80
2023-02-02T06:03:17.093Z,4.80
2023-02-02T06:05:43.904Z,4.80
2023-02-02T06:08:10.801Z,4.80
2023-02-02T06:10:41.771Z,4.90
2023-02-02T06:13:09.274Z,4.90
2023-02-02T06:15:36.669Z,4.90
2023-02-02T06:18:06.035Z,5.00
2023-02-02T06:20:32.917Z,5.10
2023-02-02T06:22:59.768Z,5.00
2023-02-02T06:25:26.784Z,4.90
2023-02-02T06:27:57.864Z,4.90
2023-02-02T06:30:24.662Z,5.00
2023-02-02T06:32:51.578Z,5.00
2023-02-02T06:35:18.394Z,4.90
2023-02-02T06:37:45.079Z,4.90
2023-02-02T06:40:13.695Z,4.90
2023-02-02T06:42:40.890Z,4.90
2023-02-02T06:45:08.218Z,5.00
2023-02-02T06:47:34.992Z,5.00
2023-02-02T06:50:01.732Z,4.90
2023-02-02T06:52:28.543Z,4.90
2023-02-02T06:54:55.238Z,4.90
2023-02-02T06:57:21.890Z,4.90
2023-02-02T06:59:48.580Z,4.90
2023-02-02T07:02:15.406Z,4.90
2023-02-02T07:04:42.227Z,5.00
2023-02-02T07:07:08.960Z,5.00
2023-02-02T07:09:35.930Z,5.00
2023-02-02T07:12:02.581Z,5.00
2023-02-02T07:14:29.214Z,5.10
2023-02-02T07:16:55.941Z,5.10
2023-02-02T07:19:22.637Z,5.10
2023-02-02T07:21:49.439Z,5.00
2023-02-02T07:24:16.619Z,5.10
2023-02-02T07:26:44.571Z,5.00
2023-02-02T07:29:14.839Z,5.10
2023-02-02T07:31:41.754Z,5.10
2023-02-02T07:34:08.464Z,5.10
2023-02-02T07:36:35.690Z,5.10
2023-02-02T07:39:04.783Z,5.20
2023-02-02T07:41:32.166Z,5.30
2023-02-02T07:43:58.897Z,5.20
2023-02-02T07:46:25.644Z,5.10
2023-02-02T07:48:56.971Z,5.20
2023-02-02T07:51:25.050Z,5.20
2023-02-02T07:53:53.900Z,5.10
2023-02-02T07:56:23.663Z,5.10
2023-02-02T07:58:53.492Z,5.20
2023-02-02T08:01:22.844Z,5.20
2023-02-02T08:03:50.525Z,5.10
2023-02-02T08:06:21.796Z,5.20
2023-02-02T08:08:49.306Z,5.20
2023-02-02T08:11:18.114Z,5.20
2023-02-02T08:13:48.231Z,5.20
2023-02-02T08:16:14.983Z,5.20
2023-02-02T08:18:42.357Z,5.10
2023-02-02T08:21:09.623Z,5.20
2023-02-02T08:23:37.751Z,5.20
2023-02-02T08:26:10.275Z,5.20
2023-02-02T08:28:37.559Z,5.20
2023-02-02T08:31:15.830Z,5.30
2023-02-02T08:33:42.697Z,5.30
2023-02-02T08:36:14.001Z,5.30
2023-02-02T08:38:41.271Z,5.40
2023-02-02T08:41:10.021Z,5.40
2023-02-02T08:43:37.021Z,5.30
2023-02-02T08:46:05.704Z,5.40
2023-02-02T08:48:33.527Z,5.30
2023-02-02T08:51:00.474Z,5.40
2023-02-02T08:53:28.338Z,5.50
2023-02-02T08:56:04.173Z,5.50
2023-02-02T08:58:31.552Z,5.30
2023-02-02T09:01:13.314Z,5.40
2023-02-02T09:03:40.447Z,5.40
2023-02-02T09:06:08.956Z,5.40
2023-02-02T09:08:36.044Z,5.50
2023-02-02T09:11:17.443Z,5.50
2023-02-02T09:13:45.979Z,5.50
2023-02-02T09:16:14.895Z,5.60
2023-02-02T09:18:42.778Z,5.70
2023-02-02T09:21:12.273Z,5.70
2023-02-02T09:23:40.709Z,5.80
2023-02-02T09:26:15.263Z,5.80
2023-02-02T09:28:44.126Z,5.80
2023-02-02T09:31:11.362Z,5.70
2023-02-02T09:33:38.515Z,5.60
2023-02-02T09:36:24.964Z,5.60
2023-02-02T09:38:52.191Z,5.60
2023-02-02T09:41:37.265Z,5.80
2023-02-02T09:44:09.952Z,5.70
2023-02-02T09:46:36.544Z,5.70
2023-02-02T09:49:12.469Z,5.80
2023-02-02T09:51:49.315Z,5.80
2023-02-02T09:54:37.206Z,5.80
2023-02-02T09:57:10.495Z,5.80
2023-02-02T09:59:41.771Z,6.00
2023-02-02T10:02:39.853Z,6.00
2023-02-02T10:05:35.394Z,5.80
2023-02-02T10:08:05.700Z,5.80
2023-02-02T10:10:42.907Z,5.80
2023-02-02T10:13:17.797Z,6.00
2023-02-02T10:16:01.804Z,5.80
2023-02-02T10:18:50.153Z,6.10
2023-02-02T10:21:54.169Z,5.90
2023-02-02T10:24:24.952Z,6.00
2023-02-02T10:26:58.124Z,5.80
2023-02-02T10:29:48.012Z,5.70
2023-02-02T10:32:25.038Z,5.70
2023-02-02T10:35:19.167Z,5.80
2023-02-02T10:38:08.105Z,5.70
2023-02-02T10:40:57.733Z,5.70
2023-02-02T10:43:48.680Z,5.70
2023-02-02T10:46:23.628Z,5.70
2023-02-02T10:48:52.840Z,6.00
2023-02-02T10:51:28.886Z,6.10
2023-02-02T10:53:59.841Z,6.30
2023-02-02T10:56:37.557Z,6.40
2023-02-02T10:59:27.272Z,6.40
2023-02-02T11:01:54.032Z,6.60
2023-02-02T11:04:40.239Z,6.50
2023-02-02T11:07:07.214Z,6.30
2023-02-02T11:09:39.465Z,6.50
2023-02-02T11:12:21.319Z,6.60
2023-02-02T11:15:05.211Z,6.90
2023-02-02T11:17:33.109Z,6.80
2023-02-02T11:19:59.857Z,6.90
2023-02-02T11:22:37.138Z,6.60
2023-02-02T11:25:23.011Z,6.30
2023-02-02T11:27:49.894Z,6.10
2023-02-02T11:30:28.568Z,6.10
2023-02-02T11:32:56.383Z,6.20
2023-02-02T11:35:29.665Z,6.20
2023-02-02T11:37:59.297Z,6.10
2023-02-02T11:40:28.296Z,6.00
2023-02-02T11:43:01.160Z,5.90
2023-02-02T11:45:27.876Z,6.10
2023-02-02T11:48:00.161Z,6.10
2023-02-02T11:50:28.112Z,6.30
2023-02-02T11:52:55.459Z,6.30
2023-02-02T11:55:30.227Z,6.40
2023-02-02T11:58:19.817Z,6.40
2023-02-02T12:00:48.639Z,6.20
2023-02-02T12:03:32.293Z,6.10
2023-02-02T12:05:59.676Z,6.10
2023-02-02T12:08:26.419Z,6.30
2023-02-02T12:11:03.947Z,6.30
2023-02-02T12:13:55.381Z,6.10
2023-02-02T12:16:43.329Z,6.20
2023-02-02T12:19:38.196Z,6.10
2023-02-02T12:22:11.483Z,5.90
2023-02-02T12:24:54.607Z,5.90
2023-02-02T12:27:46.035Z,5.90
2023-02-02T12:30:15.797Z,5.80
2023-02-02T12:32:45.650Z,5.90
2023-02-02T12:35:30.923Z,5.90
2023-02-02T12:38:12.068Z,6.20
2023-02-02T12:40:48.587Z,6.10
2023-02-02T12:43:29.278Z,6.10
2023-02-02T12:45:55.942Z,6.10
2023-02-02T12:48:28.948Z,6.20
2023-02-02T12:51:16.749Z,6.20
2023-02-02T12:54:32.982Z,6.20
2023-02-02T12:57:01.163Z,6.30
2023-02-02T13:00:05.620Z,6.40
2023-02-02T13:02:38.240Z,6.40
2023-02-02T13:05:12.917Z,6.40
2023-02-02T13:07:57.792Z,6.60
2023-02-02T13:10:34.047Z,6.20
2023-02-02T13:13:12.398Z,6.20
2023-02-02T13:15:42.858Z,6.10
2023-02-02T13:18:21.917Z,6.20
2023-02-02T13:20:54.425Z,6.20
2023-02-02T13:23:47.235Z,6.00
2023-02-02T13:26:20.665Z,6.20
2023-02-02T13:29:03.012Z,6.10
2023-02-02T13:31:40.351Z,6.10
2023-02-02T13:34:28.722Z,6.20
2023-02-02T13:37:17.856Z,6.20
2023-02-02T13:40:01.700Z,6.20
2023-02-02T13:42:45.911Z,6.10
2023-02-02T13:45:51.560Z,6.10
2023-02-02T13:48:42.149Z,6.20
2023-02-02T13:51:11.776Z,6.10
2023-02-02T13:54:11.862Z,6.20
2023-02-02T13:56:50.763Z,6.20
2023-02-02T13:59:45.694Z,6.20
2023-02-02T14:02:37.912Z,6.10
2023-02-02T14:05:06.471Z,6.20
2023-02-02T14:07:43.644Z,6.20
2023-02-02T14:10:28.876Z,6.20
2023-02-02T14:12:56.225Z,6.30
2023-02-02T14:15:41.073Z,6.20
2023-02-02T14:18:07.918Z,6.50
2023-02-02T14:20:45.920Z,6.30
2023-02-02T14:23:51.302Z,6.40
2023-02-02T14:26:42.860Z,6.40
2023-02-02T14:29:46.591Z,6.40
2023-02-02T14:32:27.728Z,6.40
2023-02-02T14:34:56.904Z,6.50
2023-02-02T14:37:26.603Z,6.40
2023-02-02T14:40:24.037Z,6.40
2023-02-02T14:43:23.481Z,6.30
2023-02-02T14:46:12.905Z,6.30
2023-02-02T14:49:02.914Z,6.20
2023-02-02T14:51:32.878Z,6.30
2023-02-02T14:54:06.351Z,6.20
2023-02-02T14:56:41.397Z,6.10
2023-02-02T14:59:24.626Z,6.10
2023-02-02T15:02:17.471Z,6.20
2023-02-02T15:04:47.812Z,6.20
2023-02-02T15:07:23.578Z,6.20
2023-02-02T15:09:52.133Z,6.10
2023-02-02T15:12:44.576Z,6.10
2023-02-02T15:15:23.605Z,6.10
2023-02-02T15:18:15.278Z,6.10
2023-02-02T15:20:48.695Z,5.90
2023-02-02T15:23:24.287Z,6.00
2023-02-02T15:26:03.334Z,6.00
2023-02-02T15:28:48.748Z,6.00
2023-02-02T15:31:57.453Z,6.00
2023-02-02T15:34:38.961Z,6.10
2023-02-02T15:37:08.514Z,6.00
2023-02-02T15:39:42.049Z,6.00
2023-02-02T15:42:41.692Z,6.00
2023-02-02T15:45:28.391Z,6.00
2023-02-02T15:47:57.469Z,6.00
2023-02-02T15:50:24.495Z,6.00
2023-02-02T15:52:52.911Z,6.10
2023-02-02T15:55:35.311Z,6.10
2023-02-02T15:58:02.995Z,6.10
2023-02-02T16:00:32.411Z,6.10
2023-02-02T16:03:08.009Z,6.10
2023-02-02T16:05:34.579Z,6.00
2023-02-02T16:08:06.508Z,6.00
2023-02-02T16:10:35.245Z,6.10
2023-02-02T16:13:03.073Z,6.10
2023-02-02T16:15:31.879Z,6.00
2023-02-02T16:18:07.823Z,6.00
2023-02-02T16:20:36.388Z,6.10
2023-02-02T16:23:06.043Z,6.10
2023-02-02T16:25:44.194Z,6.10
2023-02-02T16:28:15.136Z,6.10
2023-02-02T16:30:43.158Z,6.10
2023-02-02T16:33:29.576Z,6.20
2023-02-02T16:35:56.706Z,6.20
2023-02-02T16:38:31.336Z,6.10
2023-02-02T16:41:10.464Z,6.10
2023-02-02T16:43:38.991Z,6.20
2023-02-02T16:46:15.184Z,6.40
2023-02-02T16:48:56.358Z,6.30
2023-02-02T16:51:26.760Z,6.30
2023-02-02T16:54:20.246Z,6.30
2023-02-02T16:57:01.117Z,6.30
2023-02-02T16:59:37.612Z,6.30
2023-02-02T17:02:21.055Z,6.20
2023-02-02T17:04:52.154Z,6.40
2023-02-02T17:07:21.229Z,6.50
2023-02-02T17:09:48.751Z,6.40
2023-02-02T17:12:35.175Z,6.40
2023-02-02T17:15:33.384Z,6.50
2023-02-02T17:18:01.889Z,6.50
2023-02-02T17:20:29.060Z,6.40
2023-02-02T17:23:03.594Z,6.60
2023-02-02T17:25:32.835Z,6.60
2023-02-02T17:28:00.811Z,6.50
2023-02-02T17:30:28.835Z,6.60
2023-02-02T17:32:55.752Z,6.50
2023-02-02T17:35:25.577Z,6.50
2023-02-02T17:37:53.564Z,6.50
2023-02-02T17:40:22.449Z,6.50
2023-02-02T17:42:53.531Z,6.60
2023-02-02T17:45:23.879Z,6.70
2023-02-02T17:47:51.286Z,6.80
2023-02-02T17:50:18.512Z,6.70
2023-02-02T17:52:46.077Z,6.60
2023-02-02T17:55:25.946Z,6.50
2023-02-02T17:57:53.959Z,6.40
2023-02-02T18:00:24.034Z,6.40
2023-02-02T18:02:56.759Z,6.40
2023-02-02T18:05:23.949Z,6.40
2023-02-02T18:07:50.774Z,6.50
2023-02-02T18:10:19.219Z,6.40
2023-02-02T18:12:46.022Z,6.50
2023-02-02T18:15:14.711Z,6.30
2023-02-02T18:17:42.210Z,6.30
2023-02-02T18:20:11.851Z,6.20
2023-02-02T18:22:38.574Z,6.20
2023-02-02T18:25:06.043Z,6.20
2023-02-02T18:27:32.708Z,6.20
2023-02-02T18:29:59.440Z,6.30
2023-02-02T18:32:26.314Z,6.30
2023-02-02T18:34:55.810Z,6.20
2023-02-02T18:37:24.096Z,6.20
2023-02-02T18:39:51.814Z,6.20
2023-02-02T18:42:18.499Z,6.20
2023-02-02T18:44:45.218Z,6.20
2023-02-02T18:47:11.895Z,6.20
2023-02-02T18:49:38.538Z,6.30
2023-02-02T18:52:05.365Z,6.20
2023-02-02T18:54:33.824Z,6.30
2023-02-02T18:57:00.491Z,6.30
2023-02-02T18:59:28.474Z,6.30
2023-02-02T19:01:55.542Z,6.50
2023-02-02T19:04:22.338Z,6.50
2023-02-02T19:07:07.532Z,6.50
2023-02-02T19:09:34.786Z,6.40
2023-02-02T19:12:02.060Z,6.50
2023-02-02T19:14:33.176Z,6.40
2023-02-02T19:17:09.566Z,6.50
2023-02-02T19:19:36.324Z,6.40
2023-02-02T19:22:24.053Z,6.50
2023-02-02T19:24:51.160Z,6.40
2023-02-02T19:27:23.620Z,6.30
2023-02-02T19:29:54.090Z,6.50
2023-02-02T19:32:24.928Z,6.30
2023-02-02T19:34:58.579Z,6.40
2023-02-02T19:37:27.593Z,6.70
2023-02-02T19:40:02.135Z,6.50
2023-02-02T19:42:29.111Z,6.60
2023-02-02T19:44:58.396Z,6.40
2023-02-02T19:47:31.948Z,6.50
2023-02-02T19:50:12.033Z,6.50
2023-02-02T19:52:39.235Z,6.30
2023-02-02T19:55:20.916Z,6.30
2023-02-02T19:57:47.706Z,6.20
2023-02-02T20:00:23.004Z,6.40
2023-02-02T20:03:00.157Z,6.60
2023-02-02T20:05:35.600Z,6.50
2023-02-02T20:08:12.777Z,6.60
2023-02-02T20:10:42.514Z,6.70
2023-02-02T20:13:34.503Z,6.70
2023-02-02T20:16:04.359Z,6.60
2023-02-02T20:18:41.807Z,6.60
2023-02-02T20:21:32.134Z,6.40
2023-02-02T20:23:58.967Z,6.40
2023-02-02T20:26:36.234Z,6.50
2023-02-02T20:29:17.312Z,6.40
2023-02-02T20:31:45.091Z,6.50
2023-02-02T20:34:24.237Z,6.50
2023-02-02T20:36:52.591Z,6.40
2023-02-02T20:39:26.273Z,6.40
2023-02-02T20:41:56.408Z,6.40
2023-02-02T20:44:25.004Z,6.20
2023-02-02T20:46:51.863Z,6.20
2023-02-02T20:49:20.672Z,6.50
2023-02-02T20:51:47.579Z,6.70
2023-02-02T20:54:14.355Z,6.70
2023-02-02T20:56:41.179Z,6.70
2023-02-02T20:59:07.991Z,6.90
2023-02-02T21:01:34.780Z,6.90
2023-02-02T21:04:05.305Z,6.80
2023-02-02T21:06:32.043Z,6.60
2023-02-02T21:08:58.764Z,6.60
2023-02-02T21:11:25.561Z,6.30
2023-02-02T21:13:55.129Z,6.50
2023-02-02T21:16:22.643Z,6.40
2023-02-02T21:18:49.592Z,6.50
2023-02-02T21:21:18.756Z,6.30
2023-02-02T21:23:48.969Z,6.30
2023-02-02T21:28:44.827Z,6.20
2023-02-02T21:31:13.740Z,6.10
2023-02-02T21:33:45.042Z,6.00
2023-02-02T21:36:32.031Z,6.10
2023-02-02T21:39:24.956Z,6.00
2023-02-02T21:42:16.074Z,6.20
2023-02-02T21:44:54.144Z,6.20
2023-02-02T21:47:46.857Z,6.10
2023-02-02T21:50:25.890Z,6.00
2023-02-02T21:53:03.944Z,6.00
2023-02-02T21:55:36.806Z,6.00
2023-02-02T21:58:34.805Z,5.90
2023-02-02T22:01:16.907Z,5.90
2023-02-02T22:03:46.673Z,5.80
2023-02-02T22:06:27.717Z,6.00
2023-02-02T22:09:24.850Z,6.20
2023-02-02T22:11:54.255Z,6.20
2023-02-02T22:14:37.762Z,6.00
2023-02-02T22:17:37.259Z,6.00
2023-02-02T22:20:31.644Z,6.10
2023-02-02T22:22:58.554Z,6.30
2023-02-02T22:25:36.666Z,6.20
2023-02-02T22:28:26.300Z,6.10
2023-02-02T22:30:54.977Z,6.10
2023-02-02T22:33:22.967Z,5.90
2023-02-02T22:35:49.786Z,5.90
2023-02-02T22:38:21.816Z,5.70
2023-02-02T22:40:50.272Z,5.70
2023-02-02T22:43:18.512Z,5.60
2023-02-02T22:45:46.128Z,5.60
2023-02-02T22:48:14.361Z,5.60
2023-02-02T22:50:41.328Z,5.70
2023-02-02T22:53:08.522Z,5.70
2023-02-02T22:55:35.379Z,5.70
2023-02-02T22:58:02.038Z,5.60
2023-02-02T23:00:32.253Z,5.70
2023-02-02T23:02:59.570Z,5.50
2023-02-02T23:05:27.247Z,5.50
2023-02-02T23:07:54.636Z,5.60
2023-02-02T23:10:25.000Z,5.80
2023-02-02T23:12:54.924Z,6.00
2023-02-02T23:15:21.925Z,6.10
2023-02-02T23:17:48.753Z,6.20
2023-02-02T23:20:15.950Z,6.40
2023-02-02T23:22:42.773Z,6.20
2023-02-02T23:25:10.519Z,6.20
2023-02-02T23:27:37.548Z,6.20
2023-02-02T23:30:05.821Z,6.10
2023-02-02T23:32:32.503Z,6.00
2023-02-02T23:34:59.629Z,5.90
2023-02-02T23:37:26.505Z,5.80
2023-02-02T23:39:53.194Z,6.00
2023-02-02T23:42:19.958Z,6.20
2023-02-02T23:44:46.820Z,6.20
2023-02-02T23:47:13.533Z,6.10
2023-02-02T23:49:40.443Z,6.10
2023-02-02T23:52:07.420Z,6.30
2023-02-02T23:54:34.552Z,6.30
2023-02-02T23:57:01.953Z,6.30
2023-02-02T23:59:28.737Z,6.30
